Time;durP1;ratioP1;P1;durP2;ratioP2;P2;SDS_P1;SDS_P2;PMS_P1;PMS_P2;Temp;Humidity;BMP_temperature;BMP_pressure;BME280_temperature;BME280_humidity;BME280_pressure;Samples;Min_cycle;Max_cycle;Signal;HPM_P1;HPM_P2
2022/11/16 00:01:49;;;;;;;5.75;4.65;;;10.40;99.90;;;;;;6301429;22;20034;-61
2022/11/16 00:04:15;;;;;;;6.75;5.32;;;10.30;99.90;;;;;;6301635;22;20089;-63
2022/11/16 00:06:41;;;;;;;8.77;5.22;;;10.30;99.90;;;;;;6301108;22;20027;-66
2022/11/16 00:09:22;;;;;;;6.57;5.00;;;10.30;99.90;;;;;;6300754;22;20034;-60
2022/11/16 00:11:50;;;;;;;10.25;5.57;;;10.40;99.90;;;;;;6300777;22;20027;-60
2022/11/16 00:14:16;;;;;;;6.38;4.93;;;10.40;99.90;;;;;;6300667;22;20019;-63
2022/11/16 00:19:12;;;;;;;7.45;5.05;;;10.40;99.90;;;;;;6301365;22;20026;-66
2022/11/16 00:21:37;;;;;;;8.30;5.43;;;10.50;99.90;;;;;;6301613;22;20027;-64
2022/11/16 00:24:04;;;;;;;8.77;5.78;;;10.40;99.90;;;;;;6300817;22;20027;-61
2022/11/16 00:26:30;;;;;;;8.05;6.35;;;10.40;99.90;;;;;;6301590;22;20019;-60
2022/11/16 00:28:56;;;;;;;9.55;6.38;;;10.40;99.90;;;;;;6300450;22;20326;-60
2022/11/16 00:31:23;;;;;;;8.52;5.53;;;10.30;99.90;;;;;;6300863;22;20043;-61
2022/11/16 00:33:49;;;;;;;7.90;6.93;;;10.40;99.90;;;;;;6301146;22;20027;-63
2022/11/16 00:36:15;;;;;;;11.50;7.32;;;10.40;99.90;;;;;;6301426;22;20023;-62
2022/11/16 00:38:41;;;;;;;12.27;8.65;;;10.40;99.90;;;;;;6301343;22;20053;-61
2022/11/16 00:41:32;;;;;;;10.57;7.55;;;10.40;99.90;;;;;;6301603;22;20030;-60
2022/11/16 00:43:57;;;;;;;12.85;8.50;;;10.30;99.90;;;;;;6300693;22;20026;-62
2022/11/16 00:46:23;;;;;;;10.00;8.20;;;10.40;99.90;;;;;;6300734;22;20011;-60
2022/11/16 00:48:49;;;;;;;12.38;8.57;;;10.40;99.90;;;;;;6273484;22;20108;-60
2022/11/16 00:51:14;;;;;;;11.68;7.90;;;10.40;99.90;;;;;;6301699;22;20054;-61
2022/11/16 00:53:40;;;;;;;10.88;9.18;;;10.40;99.90;;;;;;6302804;22;20027;-60
2022/11/16 00:56:06;;;;;;;10.43;8.45;;;10.40;99.90;;;;;;6302277;22;20064;-60
2022/11/16 00:58:32;;;;;;;10.50;9.40;;;10.40;99.90;;;;;;6302117;22;20089;-60
2022/11/16 01:01:06;;;;;;;12.18;8.23;;;10.40;99.90;;;;;;6302665;22;20015;-60
2022/11/16 01:03:33;;;;;;;9.15;7.22;;;10.40;99.90;;;;;;6303129;22;20027;-60
2022/11/16 01:06:04;;;;;;;7.72;6.32;;;10.40;99.90;;;;;;6275755;22;20098;-60
2022/11/16 01:08:31;;;;;;;7.57;5.88;;;10.40;99.90;;;;;;6303281;22;20030;-60
2022/11/16 01:12:07;;;;;;;6.40;5.43;;;10.40;99.90;;;;;;6302661;22;20024;-60
2022/11/16 01:13:47;;;;;;;6.68;5.55;;;10.40;99.90;;;;;;6302030;22;20033;-60
2022/11/16 01:16:17;;;;;;;8.10;5.50;;;10.40;99.90;;;;;;6275142;22;20408;-61
2022/11/16 01:21:11;;;;;;;6.53;5.50;;;10.40;99.90;;;;;;6303042;22;20477;-60
2022/11/16 01:23:37;;;;;;;6.75;4.38;;;10.50;99.90;;;;;;6303042;22;20015;-60
2022/11/16 01:26:02;;;;;;;6.85;5.40;;;10.50;99.90;;;;;;6302195;22;20031;-60
2022/11/16 01:28:29;;;;;;;6.18;4.28;;;10.50;99.90;;;;;;6302677;22;20445;-59
2022/11/16 01:30:55;;;;;;;6.18;5.00;;;10.50;99.90;;;;;;6301931;22;20428;-59
2022/11/16 01:33:21;;;;;;;6.93;5.10;;;10.50;99.90;;;;;;6302757;22;20026;-59
2022/11/16 01:35:47;;;;;;;8.45;5.38;;;10.50;99.90;;;;;;6302527;22;20027;-59
2022/11/16 01:38:13;;;;;;;4.57;4.18;;;10.50;99.90;;;;;;6302824;22;20030;-60
2022/11/16 01:40:39;;;;;;;5.35;4.75;;;10.50;99.90;;;;;;6303027;22;20462;-60
2022/11/16 01:43:46;;;;;;;5.75;4.63;;;10.60;99.90;;;;;;6301642;22;20078;-60
2022/11/16 01:46:11;;;;;;;6.00;4.82;;;10.60;99.90;;;;;;6274527;22;20468;-60
2022/11/16 01:48:37;;;;;;;4.88;4.28;;;10.70;99.90;;;;;;6275470;22;20019;-60
2022/11/16 01:51:03;;;;;;;6.07;4.80;;;10.60;99.90;;;;;;6301912;22;20110;-60
2022/11/16 01:53:28;;;;;;;6.80;4.68;;;10.60;99.90;;;;;;6302851;22;20027;-60
2022/11/16 01:55:54;;;;;;;6.05;4.53;;;10.60;99.90;;;;;;6302034;22;20019;-59
2022/11/16 01:58:22;;;;;;;5.32;4.65;;;10.60;99.90;;;;;;6302560;22;20102;-60
2022/11/16 02:00:48;;;;;;;6.20;4.53;;;10.60;99.90;;;;;;6274916;22;20030;-59
2022/11/16 02:03:18;;;;;;;5.55;3.88;;;10.60;99.90;;;;;;6302057;22;20023;-59
2022/11/16 02:05:47;;;;;;;6.50;4.22;;;10.70;99.90;;;;;;6301817;22;20026;-59
2022/11/16 02:11:32;;;;;;;7.25;5.00;;;10.70;99.90;;;;;;6302322;22;20050;-59
2022/11/16 02:14:24;;;;;;;7.03;5.60;;;10.70;99.90;;;;;;6301664;22;20393;-60
2022/11/16 02:17:27;;;;;;;7.03;6.05;;;10.70;99.90;;;;;;6301926;22;20054;-59
2022/11/16 02:20:26;;;;;;;6.80;5.68;;;10.70;99.90;;;;;;6272868;22;20457;-59
2022/11/16 02:22:52;;;;;;;6.85;5.90;;;10.70;99.90;;;;;;6301893;22;20069;-60
2022/11/16 02:25:33;;;;;;;8.05;6.00;;;10.70;99.90;;;;;;6301993;22;20395;-59
2022/11/16 02:28:19;;;;;;;7.10;5.60;;;10.70;99.90;;;;;;6254106;22;1089985;-59
2022/11/16 02:30:49;;;;;;;8.55;5.78;;;10.70;99.90;;;;;;6302061;22;20481;-59
2022/11/16 02:33:20;;;;;;;5.38;4.63;;;10.70;99.90;;;;;;6302388;22;20019;-59
2022/11/16 02:35:53;;;;;;;7.82;5.68;;;10.70;99.90;;;;;;6301604;22;20023;-58
2022/11/16 02:38:33;;;;;;;6.07;4.70;;;10.70;99.90;;;;;;6302215;22;20353;-59
2022/11/16 02:41:14;;;;;;;6.45;4.53;;;10.70;99.90;;;;;;6301832;22;20250;-59
2022/11/16 02:43:46;;;;;;;6.75;4.80;;;10.70;99.90;;;;;;6302589;22;20163;-59
2022/11/16 02:46:18;;;;;;;7.22;4.70;;;10.70;99.90;;;;;;6302164;22;20128;-60
2022/11/16 02:49:18;;;;;;;5.32;4.10;;;10.90;99.90;;;;;;6301738;22;20046;-59
2022/11/16 02:51:47;;;;;;;4.40;3.67;;;10.70;99.90;;;;;;6301208;22;20375;-59
2022/11/16 02:54:20;;;;;;;5.93;3.65;;;10.70;99.90;;;;;;6300895;22;20026;-59
2022/11/16 02:57:03;;;;;;;6.10;4.93;;;10.70;99.90;;;;;;6301546;22;20457;-60
2022/11/16 02:59:46;;;;;;;6.20;4.03;;;10.70;99.90;;;;;;6302182;22;20422;-59
2022/11/16 03:02:17;;;;;;;6.78;4.00;;;10.70;99.90;;;;;;6230647;22;20258;-59
2022/11/16 03:04:55;;;;;;;5.28;4.07;;;10.60;99.90;;;;;;6301823;22;20027;-60
2022/11/16 03:07:27;;;;;;;5.60;4.10;;;10.70;99.90;;;;;;6301000;22;20391;-59
2022/11/16 03:09:55;;;;;;;6.95;4.55;;;10.60;99.90;;;;;;6301378;22;20023;-59
2022/11/16 03:12:27;;;;;;;4.60;3.88;;;10.60;99.90;;;;;;6301897;22;20473;-59
2022/11/16 03:14:57;;;;;;;5.28;3.80;;;10.70;99.90;;;;;;6300430;22;20020;-59
2022/11/16 03:17:40;;;;;;;4.95;3.97;;;10.60;99.90;;;;;;6301912;22;20765;-59
2022/11/16 03:20:08;;;;;;;5.35;3.90;;;10.60;99.90;;;;;;6301187;22;20361;-59
2022/11/16 03:22:37;;;;;;;5.35;4.38;;;10.60;99.90;;;;;;6301613;22;20019;-59
2022/11/16 03:25:05;;;;;;;8.13;4.68;;;10.60;99.90;;;;;;6301801;22;20051;-59
2022/11/16 03:27:46;;;;;;;4.82;4.28;;;10.50;99.90;;;;;;6301552;22;20050;-59
2022/11/16 03:30:20;;;;;;;5.25;3.97;;;10.60;99.90;;;;;;6146250;23;20029;-59
2022/11/16 03:32:59;;;;;;;5.97;4.50;;;10.60;99.90;;;;;;6145386;22;20025;-59
2022/11/16 03:35:36;;;;;;;5.97;4.07;;;10.60;99.90;;;;;;6145823;22;20073;-59
2022/11/16 03:38:04;;;;;;;5.70;3.95;;;10.50;99.90;;;;;;6144558;23;21847;-59
2022/11/16 03:40:33;;;;;;;4.80;4.03;;;10.50;99.90;;;;;;6145608;22;20029;-59
2022/11/16 03:43:01;;;;;;;6.68;4.15;;;10.50;99.90;;;;;;6145684;22;20035;-60
2022/11/16 03:45:28;;;;;;;5.13;4.40;;;10.50;99.90;;;;;;6226306;22;20027;-61
2022/11/16 03:47:54;;;;;;;6.95;4.72;;;10.50;99.90;;;;;;6156709;22;20030;-63
2022/11/16 03:50:20;;;;;;;8.60;5.15;;;10.60;99.90;;;;;;6145355;22;20030;-66
2022/11/16 03:52:46;;;;;;;5.18;4.07;;;10.50;99.90;;;;;;6241560;22;20466;-60
2022/11/16 03:55:11;;;;;;;7.38;5.43;;;10.50;99.90;;;;;;6209283;22;20020;-63
2022/11/16 03:57:37;;;;;;;7.80;4.28;;;10.50;99.90;;;;;;6171946;22;20029;-63
2022/11/16 04:00:05;;;;;;;7.57;3.88;;;10.50;99.90;;;;;;6246303;22;20025;-61
2022/11/16 04:02:30;;;;;;;7.30;4.80;;;10.50;99.90;;;;;;6145868;23;20021;-60
2022/11/16 04:29:07;;;;;;;6.70;5.97;;;10.80;99.90;;;;;;6300213;22;20033;-60
2022/11/16 04:39:47;;;;;;;6.72;5.38;;;10.40;99.90;;;;;;6302931;22;20027;-62
2022/11/16 04:42:21;;;;;;;10.35;5.85;;;10.50;99.90;;;;;;6303461;22;20027;-61
2022/11/16 04:47:31;;;;;;;10.00;6.40;;;10.50;99.90;;;;;;6303389;22;20023;-60
2022/11/16 04:49:56;;;;;;;8.02;5.90;;;10.50;99.90;;;;;;6302398;22;20348;-62
2022/11/16 04:52:22;;;;;;;7.03;5.80;;;10.40;99.90;;;;;;6303125;22;20027;-60
2022/11/16 04:54:48;;;;;;;9.50;6.30;;;10.50;99.90;;;;;;6302810;22;20446;-59
2022/11/16 04:57:13;;;;;;;7.20;5.63;;;10.40;99.90;;;;;;6303593;22;20049;-60
2022/11/16 04:59:39;;;;;;;8.73;5.80;;;10.50;99.90;;;;;;6303505;22;20024;-59
2022/11/16 05:02:08;;;;;;;8.18;6.63;;;10.50;99.90;;;;;;6302746;22;20023;-60
2022/11/16 05:04:41;;;;;;;10.32;7.75;;;10.50;99.90;;;;;;6302792;22;20464;-59
2022/11/16 05:07:11;;;;;;;7.00;5.63;;;10.40;99.90;;;;;;6301440;22;20464;-61
2022/11/16 05:09:41;;;;;;;6.90;5.78;;;10.50;99.90;;;;;;6303211;22;20069;-60
2022/11/16 05:12:13;;;;;;;7.72;6.70;;;10.50;99.90;;;;;;6302939;22;20368;-59
2022/11/16 05:14:39;;;;;;;8.43;6.35;;;10.40;99.90;;;;;;6301434;22;20054;-63
2022/11/16 05:17:05;;;;;;;7.38;5.70;;;10.40;99.90;;;;;;6302080;22;20043;-60
2022/11/16 05:22:07;;;;;;;7.85;5.85;;;10.40;99.90;;;;;;6302707;22;20030;-60
2022/11/16 05:24:33;;;;;;;7.10;6.38;;;10.50;99.90;;;;;;6302947;22;20015;-59
2022/11/16 05:27:04;;;;;;;8.32;6.82;;;10.50;99.90;;;;;;6302787;22;20019;-59
2022/11/16 05:29:30;;;;;;;6.75;6.15;;;10.50;99.90;;;;;;6302974;22;20027;-60
2022/11/16 05:31:56;;;;;;;14.95;7.20;;;10.40;99.90;;;;;;6301704;22;20023;-59
2022/11/16 05:34:22;;;;;;;10.65;7.03;;;10.40;99.90;;;;;;6300299;22;20038;-59
2022/11/16 05:36:48;;;;;;;8.38;6.82;;;10.40;99.90;;;;;;6300820;22;20350;-59
2022/11/16 05:39:13;;;;;;;7.78;6.38;;;10.40;99.90;;;;;;6301270;22;20047;-60
2022/11/16 05:41:39;;;;;;;9.23;7.65;;;10.40;99.90;;;;;;6301656;22;20034;-60
2022/11/16 05:44:05;;;;;;;7.28;6.05;;;10.40;99.90;;;;;;6300982;22;20019;-60
2022/11/16 05:46:31;;;;;;;7.57;5.97;;;10.40;99.90;;;;;;6301149;22;20345;-60
2022/11/16 05:48:57;;;;;;;9.18;6.45;;;10.40;99.90;;;;;;6273297;22;20073;-60
2022/11/16 05:51:23;;;;;;;8.35;6.20;;;10.40;99.90;;;;;;6301114;22;20361;-60
2022/11/16 05:53:48;;;;;;;10.50;6.22;;;10.40;99.90;;;;;;6300891;22;20047;-60
2022/11/16 05:56:15;;;;;;;7.45;6.63;;;10.40;99.90;;;;;;6301194;22;20023;-60
2022/11/16 06:01:33;;;;;;;7.25;5.90;;;10.40;99.90;;;;;;6144901;22;20509;-61
2022/11/16 06:04:00;;;;;;;6.57;5.88;;;10.40;99.90;;;;;;6144429;23;20047;-64
2022/11/16 06:06:26;;;;;;;9.27;6.28;;;10.40;99.90;;;;;;6144265;22;20435;-67
2022/11/16 06:08:52;;;;;;;8.38;6.93;;;10.40;99.90;;;;;;6143839;22;20456;-61
2022/11/16 06:11:19;;;;;;;8.20;6.88;;;10.50;99.90;;;;;;6145527;22;20022;-61
2022/11/16 06:13:46;;;;;;;7.32;6.07;;;10.40;99.90;;;;;;6144795;22;20026;-63
2022/11/16 06:16:12;;;;;;;5.90;5.30;;;10.40;99.90;;;;;;6238143;22;20098;-60
2022/11/16 06:18:40;;;;;;;8.30;6.65;;;10.40;99.90;;;;;;6300381;22;20027;-60
2022/11/16 06:21:07;;;;;;;8.10;6.75;;;10.50;99.90;;;;;;6299912;22;20029;-66
2022/11/16 06:23:33;;;;;;;8.77;5.85;;;10.40;99.90;;;;;;6299025;22;20026;-61
2022/11/16 06:25:59;;;;;;;8.63;6.78;;;10.50;99.90;;;;;;6301613;22;20023;-65
2022/11/16 06:28:25;;;;;;;9.27;8.07;;;10.50;99.90;;;;;;6301662;22;20027;-63
2022/11/16 06:30:51;;;;;;;8.68;6.05;;;10.40;99.90;;;;;;6301373;22;20341;-64
2022/11/16 06:33:17;;;;;;;9.55;6.80;;;10.50;99.90;;;;;;6301743;22;20441;-67
2022/11/16 06:35:47;;;;;;;7.53;6.40;;;10.40;99.90;;;;;;6274415;22;20334;-65
2022/11/16 06:38:17;;;;;;;8.20;6.72;;;10.50;99.90;;;;;;6300956;22;20057;-66
2022/11/16 06:40:54;;;;;;;8.95;8.05;;;10.50;99.90;;;;;;6297858;22;20453;-61
2022/11/16 06:43:21;;;;;;;7.43;6.13;;;10.50;99.90;;;;;;6271619;22;20027;-59
2022/11/16 06:45:55;;;;;;;9.38;6.70;;;10.50;99.90;;;;;;6301248;22;20150;-60
2022/11/16 06:48:21;;;;;;;7.65;6.63;;;10.50;99.90;;;;;;6253555;22;1090155;-66
2022/11/16 06:50:48;;;;;;;9.32;7.75;;;10.50;99.90;;;;;;6298981;22;20023;-66
2022/11/16 06:53:14;;;;;;;11.07;8.35;;;10.50;99.90;;;;;;6299867;22;20057;-59
2022/11/16 06:55:40;;;;;;;8.93;7.47;;;10.50;99.90;;;;;;6298625;22;20023;-59
2022/11/16 06:58:06;;;;;;;8.80;7.57;;;10.50;99.90;;;;;;6296400;22;20349;-59
2022/11/16 07:00:31;;;;;;;9.65;7.53;;;10.50;99.90;;;;;;6297410;22;20042;-59
2022/11/16 07:02:57;;;;;;;8.88;7.97;;;10.50;99.90;;;;;;6297765;22;20031;-59
2022/11/16 07:05:23;;;;;;;8.73;7.85;;;10.50;99.90;;;;;;6298120;22;20094;-59
2022/11/16 07:07:53;;;;;;;10.50;8.85;;;10.50;99.90;;;;;;6298660;22;20022;-59
2022/11/16 07:10:19;;;;;;;9.60;8.20;;;10.50;99.90;;;;;;6299859;22;20023;-59
2022/11/16 07:12:46;;;;;;;8.68;7.70;;;10.50;99.90;;;;;;6246607;22;20032;-59
2022/11/16 07:15:12;;;;;;;11.30;8.45;;;10.50;99.90;;;;;;6144376;22;20037;-59
2022/11/16 07:17:39;;;;;;;8.40;7.20;;;10.50;99.90;;;;;;6246860;22;20027;-59
2022/11/16 07:20:06;;;;;;;11.23;8.23;;;10.50;99.90;;;;;;6299419;22;20023;-59
2022/11/16 07:22:32;;;;;;;11.00;7.97;;;10.50;99.90;;;;;;6299735;22;20034;-60
2022/11/16 07:24:57;;;;;;;13.13;9.60;;;10.50;99.90;;;;;;6299357;22;20019;-59
2022/11/16 07:27:23;;;;;;;11.23;7.88;;;10.40;99.90;;;;;;6299990;22;20041;-60
2022/11/16 07:29:48;;;;;;;9.48;8.10;;;10.50;99.90;;;;;;6296007;22;20077;-58
2022/11/16 07:32:14;;;;;;;12.88;8.32;;;10.20;99.90;;;;;;6297071;22;20016;-59
2022/11/16 07:34:40;;;;;;;8.65;7.55;;;10.50;99.90;;;;;;6299280;22;20054;-59
2022/11/16 07:37:05;;;;;;;9.65;8.35;;;10.80;99.90;;;;;;6296699;22;20102;-59
2022/11/16 07:39:31;;;;;;;9.35;7.35;;;10.50;99.90;;;;;;6294128;22;20031;-59
2022/11/16 07:41:57;;;;;;;11.15;8.77;;;10.70;99.90;;;;;;6295986;22;20019;-59
2022/11/16 07:44:22;;;;;;;10.15;8.27;;;10.40;99.90;;;;;;6294585;22;20480;-59
2022/11/16 07:46:48;;;;;;;9.60;8.52;;;10.50;99.90;;;;;;6295386;22;20050;-59
2022/11/16 07:49:15;;;;;;;11.60;7.40;;;10.50;99.90;;;;;;6295417;22;20108;-59
2022/11/16 07:51:41;;;;;;;9.65;7.63;;;10.50;99.90;;;;;;6296501;22;20023;-59
2022/11/16 07:54:09;;;;;;;8.85;7.07;;;10.50;99.90;;;;;;6267935;22;20050;-59
2022/11/16 07:56:35;;;;;;;7.50;6.55;;;10.50;99.90;;;;;;6295344;22;20450;-60
2022/11/16 07:59:01;;;;;;;7.15;6.45;;;10.50;99.90;;;;;;6294749;22;20092;-59
2022/11/16 08:01:27;;;;;;;6.88;6.18;;;10.50;99.90;;;;;;6293824;22;20019;-59
2022/11/16 08:03:53;;;;;;;7.45;6.20;;;10.50;99.90;;;;;;6294202;22;20031;-60
2022/11/16 08:06:27;;;;;;;8.18;6.45;;;10.50;99.90;;;;;;6294840;22;20331;-60
2022/11/16 08:08:53;;;;;;;7.28;6.15;;;10.50;99.90;;;;;;6290569;22;20027;-59
2022/11/16 08:11:18;;;;;;;7.03;5.97;;;10.50;99.90;;;;;;6296096;22;20023;-60
2022/11/16 08:13:47;;;;;;;6.35;5.63;;;10.80;99.90;;;;;;6295855;22;20027;-60
2022/11/16 08:16:15;;;;;;;8.07;5.82;;;10.60;99.90;;;;;;6140633;22;20018;-60
2022/11/16 08:18:46;;;;;;;6.65;6.05;;;10.60;99.90;;;;;;6248092;22;20453;-59
2022/11/16 08:21:14;;;;;;;10.18;5.63;;;10.70;99.90;;;;;;6296136;22;20332;-59
2022/11/16 08:23:40;;;;;;;9.43;7.07;;;10.60;99.90;;;;;;6296026;22;20613;-59
2022/11/16 08:26:10;;;;;;;9.43;6.53;;;10.60;99.90;;;;;;6294993;22;20085;-59
2022/11/16 08:28:36;;;;;;;6.50;5.80;;;10.60;99.90;;;;;;6296000;22;20030;-60
2022/11/16 08:31:13;;;;;;;10.23;6.50;;;10.60;99.90;;;;;;6295501;22;20039;-60
2022/11/16 08:33:40;;;;;;;9.90;7.53;;;10.60;99.90;;;;;;6266967;22;20450;-60
2022/11/16 08:36:07;;;;;;;8.15;6.75;;;10.60;99.90;;;;;;6289435;22;20030;-60
2022/11/16 08:38:33;;;;;;;7.57;6.70;;;10.60;99.90;;;;;;6293379;22;20405;-60
2022/11/16 08:40:59;;;;;;;7.68;6.80;;;10.60;99.90;;;;;;6240188;22;20026;-62
2022/11/16 08:43:25;;;;;;;7.55;6.20;;;10.70;99.90;;;;;;6137226;22;20355;-60
2022/11/16 08:45:54;;;;;;;6.18;5.60;;;10.70;99.90;;;;;;6271153;22;20058;-60
2022/11/16 08:48:20;;;;;;;6.63;5.93;;;10.70;99.90;;;;;;6291381;22;20038;-63
2022/11/16 08:50:46;;;;;;;6.10;5.50;;;10.70;99.90;;;;;;6292320;22;20016;-60
2022/11/16 08:53:14;;;;;;;6.00;5.22;;;10.70;99.90;;;;;;6291153;22;20462;-59
2022/11/16 08:55:41;;;;;;;5.80;5.05;;;10.70;99.90;;;;;;6292701;22;20038;-60
2022/11/16 08:58:07;;;;;;;6.18;5.32;;;10.80;99.90;;;;;;6291393;22;20027;-60
2022/11/16 09:00:33;;;;;;;7.72;5.15;;;10.80;99.90;;;;;;6264110;22;20037;-64
2022/11/16 09:02:58;;;;;;;5.32;4.65;;;10.80;99.90;;;;;;6290609;22;20027;-60
2022/11/16 09:05:24;;;;;;;5.47;4.97;;;10.80;99.90;;;;;;6288013;22;20028;-59
2022/11/16 09:07:50;;;;;;;5.40;4.88;;;10.80;99.90;;;;;;6289383;22;20053;-60
2022/11/16 09:10:17;;;;;;;7.43;5.63;;;10.90;99.90;;;;;;6291712;22;20023;-60
2022/11/16 09:12:46;;;;;;;6.03;5.15;;;10.90;99.90;;;;;;6291537;22;20085;-60
2022/11/16 09:15:12;;;;;;;6.13;5.25;;;10.90;99.90;;;;;;6293299;22;20453;-60
2022/11/16 09:17:37;;;;;;;5.93;4.90;;;11.00;99.90;;;;;;6295991;22;20019;-60
2022/11/16 09:20:04;;;;;;;6.35;5.65;;;11.00;99.90;;;;;;6294731;22;20023;-59
2022/11/16 09:22:29;;;;;;;6.45;5.85;;;11.00;99.90;;;;;;6295808;22;20074;-60
2022/11/16 09:24:55;;;;;;;9.25;7.07;;;11.00;99.90;;;;;;6292640;22;20358;-60
2022/11/16 09:27:21;;;;;;;7.47;6.50;;;11.10;99.90;;;;;;6293730;22;20102;-60
2022/11/16 09:29:46;;;;;;;7.63;6.13;;;11.10;99.90;;;;;;6292920;22;20106;-60
2022/11/16 09:32:12;;;;;;;7.40;6.60;;;11.20;99.90;;;;;;6294886;22;20396;-60
2022/11/16 09:34:38;;;;;;;8.13;6.80;;;11.20;99.90;;;;;;6292070;22;20038;-60
2022/11/16 09:37:03;;;;;;;6.85;6.22;;;11.20;99.90;;;;;;6291787;22;20227;-60
2022/11/16 09:39:31;;;;;;;8.45;6.97;;;11.40;99.90;;;;;;6290873;22;20019;-60
2022/11/16 09:42:17;;;;;;;9.35;7.40;;;11.30;99.90;;;;;;6291468;22;20047;-60
2022/11/16 09:45:11;;;;;;;8.77;7.60;;;11.40;99.90;;;;;;6291768;22;20433;-60
2022/11/16 09:50:20;;;;;;;10.95;8.52;;;11.50;99.90;;;;;;6292702;22;20053;-60
2022/11/16 09:52:50;;;;;;;10.82;8.55;;;11.60;99.90;;;;;;6293556;22;20023;-60
2022/11/16 09:55:31;;;;;;;12.02;9.27;;;11.60;99.90;;;;;;6293975;22;20019;-60
2022/11/16 09:58:00;;;;;;;10.45;8.68;;;11.70;99.90;;;;;;6294320;22;20025;-60
2022/11/16 10:00:28;;;;;;;10.00;8.27;;;11.70;99.90;;;;;;6293727;22;20458;-60
2022/11/16 10:03:20;;;;;;;9.85;8.55;;;11.80;99.90;;;;;;6293595;22;20325;-60
2022/11/16 10:05:59;;;;;;;11.25;8.65;;;11.90;99.90;;;;;;6285500;22;20074;-60
2022/11/16 10:08:46;;;;;;;12.55;8.05;;;12.10;99.90;;;;;;6291794;22;20023;-60
2022/11/16 10:11:33;;;;;;;8.77;7.88;;;12.10;99.90;;;;;;6293825;22;20019;-60
2022/11/16 10:14:17;;;;;;;9.52;8.50;;;12.10;99.90;;;;;;6265896;22;20027;-60
2022/11/16 10:17:07;;;;;;;12.90;9.10;;;12.30;99.90;;;;;;6294407;22;20139;-60
2022/11/16 10:22:13;;;;;;;9.57;8.60;;;12.50;99.90;;;;;;6291756;22;20128;-61
2022/11/16 10:30:16;;;;;;;10.35;8.27;;;12.50;99.90;;;;;;6292901;22;20028;-60
2022/11/16 10:35:11;;;;;;;10.23;8.25;;;12.50;99.90;;;;;;6294629;22;20031;-60
2022/11/16 10:37:46;;;;;;;9.40;8.38;;;12.50;99.90;;;;;;6293998;22;20027;-60
2022/11/16 10:40:16;;;;;;;10.02;9.00;;;12.50;99.90;;;;;;6234363;22;20019;-60
2022/11/16 10:45:33;;;;;;;11.40;8.77;;;12.60;99.90;;;;;;6138763;22;20032;-60
2022/11/16 10:48:14;;;;;;;11.35;8.02;;;12.70;99.90;;;;;;6137119;22;20032;-61
2022/11/16 10:50:46;;;;;;;10.07;8.95;;;12.70;99.90;;;;;;6138587;22;20030;-61
2022/11/16 10:53:27;;;;;;;9.70;8.70;;;12.80;99.90;;;;;;6229316;22;20091;-60
2022/11/16 10:56:05;;;;;;;9.88;8.85;;;12.70;99.90;;;;;;6136859;23;20768;-60
2022/11/16 11:01:09;;;;;;;9.95;8.60;;;12.80;99.90;;;;;;6140629;22;20455;-60
2022/11/16 11:03:35;;;;;;;9.43;8.40;;;12.80;99.90;;;;;;6138928;23;20082;-60
2022/11/16 11:06:01;;;;;;;11.00;9.20;;;12.80;99.90;;;;;;6091246;22;1094939;-60
2022/11/16 11:08:30;;;;;;;9.95;8.18;;;12.70;99.90;;;;;;6129653;23;20040;-60
2022/11/16 11:12:36;;;;;;;8.80;7.97;;;12.90;99.90;;;;;;6246957;22;20026;-59
2022/11/16 11:14:07;;;;;;;9.23;7.95;;;12.70;99.90;;;;;;6291534;22;20027;-60
2022/11/16 11:16:33;;;;;;;9.23;8.25;;;12.80;99.90;;;;;;6291102;22;20019;-60
2022/11/16 11:19:26;;;;;;;9.90;8.90;;;12.80;99.90;;;;;;6291722;22;20030;-60
2022/11/16 11:21:57;;;;;;;9.45;8.38;;;12.80;99.90;;;;;;6291093;22;20517;-59
2022/11/16 11:24:24;;;;;;;9.63;8.02;;;12.80;99.90;;;;;;6265339;22;20554;-60
2022/11/16 11:26:57;;;;;;;8.27;7.40;;;12.90;99.90;;;;;;6289899;22;20019;-60
2022/11/16 11:29:31;;;;;;;10.07;8.10;;;13.00;99.90;;;;;;6291681;22;20505;-60
2022/11/16 11:32:03;;;;;;;12.48;7.20;;;13.30;99.90;;;;;;6291891;22;20019;-63
2022/11/16 11:34:33;;;;;;;8.85;6.63;;;13.50;99.90;;;;;;6289657;22;20482;-61
2022/11/16 11:37:03;;;;;;;11.95;6.40;;;13.30;99.90;;;;;;6249325;22;20344;-60
2022/11/16 11:39:35;;;;;;;10.30;5.97;;;13.30;99.90;;;;;;6239512;22;20026;-62
2022/11/16 11:42:12;;;;;;;10.80;6.15;;;13.10;99.90;;;;;;6254189;22;20036;-63
2022/11/16 11:44:50;;;;;;;7.03;5.30;;;13.10;99.90;;;;;;6292595;22;20345;-71
2022/11/16 11:47:25;;;;;;;11.43;6.47;;;13.10;99.90;;;;;;6289257;22;20027;-62
2022/11/16 11:49:57;;;;;;;9.98;5.38;;;13.00;99.90;;;;;;6291027;22;20027;-63
2022/11/16 11:52:46;;;;;;;7.13;5.18;;;12.80;99.90;;;;;;6291008;22;20428;-61
2022/11/16 11:55:16;;;;;;;7.50;5.85;;;12.90;99.90;;;;;;6136018;22;20026;-63
2022/11/16 11:57:46;;;;;;;9.20;5.97;;;12.90;99.90;;;;;;6238847;22;20083;-60
2022/11/16 12:00:13;;;;;;;8.40;5.32;;;12.90;99.90;;;;;;6237514;22;20022;-65
2022/11/16 12:05:34;;;;;;;8.18;4.55;;;12.90;99.90;;;;;;6136640;23;20033;-60
2022/11/16 12:08:15;;;;;;;10.68;5.53;;;13.00;99.90;;;;;;6136655;22;20029;-60
2022/11/16 12:10:46;;;;;;;10.10;4.05;;;13.10;99.90;;;;;;6138481;22;20099;-60
2022/11/16 12:13:23;;;;;;;8.52;4.55;;;13.10;99.90;;;;;;6137988;22;20096;-61
2022/11/16 12:16:01;;;;;;;7.88;3.85;;;13.20;99.90;;;;;;6225879;22;20525;-60
2022/11/16 12:21:25;;;;;;;6.57;2.67;;;13.30;99.90;;;;;;6137050;22;20116;-61
2022/11/16 12:24:06;;;;;;;3.83;3.10;;;13.60;99.90;;;;;;6136473;22;20030;-60
2022/11/16 12:26:36;;;;;;;4.60;2.65;;;13.80;99.90;;;;;;6137630;22;20036;-60
2022/11/16 12:29:28;;;;;;;4.70;2.88;;;13.80;99.90;;;;;;6271618;22;20458;-60
2022/11/16 12:32:37;;;;;;;4.57;3.15;;;13.80;99.90;;;;;;6292024;22;20043;-60
2022/11/16 12:35:27;;;;;;;6.13;2.55;;;13.70;99.90;;;;;;6289125;22;20687;-60
2022/11/16 12:38:25;;;;;;;5.00;1.85;;;13.90;99.90;;;;;;6294681;22;20031;-60
2022/11/16 12:41:24;;;;;;;7.40;1.95;;;14.20;99.90;;;;;;6293880;22;20089;-60
2022/11/16 12:44:04;;;;;;;6.15;2.20;;;14.30;99.90;;;;;;6267230;22;20421;-60
2022/11/16 12:46:32;;;;;;;3.60;2.10;;;14.40;99.90;;;;;;6295252;22;20146;-60
2022/11/16 12:49:20;;;;;;;7.30;2.22;;;14.40;99.90;;;;;;6295427;22;20102;-61
2022/11/16 12:51:57;;;;;;;4.72;2.10;;;14.30;99.90;;;;;;6297331;22;20100;-61
2022/11/16 12:54:46;;;;;;;4.38;1.75;;;14.40;99.90;;;;;;6295343;22;20102;-60
2022/11/16 12:57:28;;;;;;;8.05;2.97;;;14.10;99.90;;;;;;6297347;22;20034;-60
2022/11/16 13:00:04;;;;;;;4.55;2.15;;;14.20;99.90;;;;;;6296529;22;20034;-59
2022/11/16 13:02:46;;;;;;;5.40;2.05;;;14.10;99.90;;;;;;6269185;22;20097;-60
2022/11/16 13:05:23;;;;;;;4.38;1.63;;;14.10;99.90;;;;;;6295685;22;20023;-60
2022/11/16 13:08:04;;;;;;;4.13;2.35;;;14.30;99.90;;;;;;6294073;22;20046;-60
2022/11/16 13:10:34;;;;;;;1.85;1.73;;;14.40;99.90;;;;;;6296147;22;20023;-60
2022/11/16 13:13:10;;;;;;;5.13;1.50;;;14.50;99.90;;;;;;6295121;22;20029;-60
2022/11/16 13:15:40;;;;;;;4.22;1.70;;;14.50;99.90;;;;;;6295767;22;20023;-60
2022/11/16 13:18:12;;;;;;;2.88;1.33;;;14.60;99.90;;;;;;6294707;22;20021;-60
2022/11/16 13:20:46;;;;;;;9.52;2.08;;;14.60;99.90;;;;;;6296760;22;20465;-60
2022/11/16 13:23:29;;;;;;;6.18;1.95;;;14.40;99.90;;;;;;6231878;22;20409;-60
2022/11/16 13:25:58;;;;;;;6.25;1.48;;;14.50;99.90;;;;;;6293652;22;20038;-60
2022/11/16 13:28:46;;;;;;;6.03;2.80;;;14.20;99.90;;;;;;6161822;22;20336;-60
2022/11/16 13:31:29;;;;;;;2.83;1.60;;;14.20;99.90;;;;;;6138289;23;20029;-60
2022/11/16 13:34:23;;;;;;;3.87;1.37;;;14.10;99.90;;;;;;6138288;23;20025;-60
2022/11/16 13:36:49;;;;;;;4.70;1.67;;;13.80;99.90;;;;;;6140919;22;20387;-62
2022/11/16 13:39:17;;;;;;;2.83;1.73;;;13.90;99.90;;;;;;6267596;22;20362;-70
2022/11/16 13:44:17;;;;;;;10.63;2.17;;;13.70;99.90;;;;;;6296760;22;20050;-72
2022/11/16 13:47:09;;;;;;;8.85;1.77;;;13.60;99.90;;;;;;6295227;22;20423;-68
2022/11/16 13:49:39;;;;;;;3.55;1.35;;;13.70;99.90;;;;;;6140401;22;20021;-61
2022/11/16 13:52:10;;;;;;;7.18;1.30;;;13.50;99.90;;;;;;6140048;22;20137;-60
2022/11/16 13:54:46;;;;;;;3.58;1.60;;;13.30;99.90;;;;;;6140649;22;20056;-60
2022/11/16 13:57:30;;;;;;;8.68;1.92;;;13.30;99.90;;;;;;6295681;22;20023;-65
2022/11/16 14:00:09;;;;;;;3.60;1.17;;;13.20;99.90;;;;;;6295494;22;20023;-63
2022/11/16 14:02:36;;;;;;;17.10;2.50;;;13.20;99.90;;;;;;6159664;22;20029;-64
2022/11/16 14:05:12;;;;;;;5.88;1.25;;;13.20;99.90;;;;;;6284752;22;20094;-67
2022/11/16 14:10:29;;;;;;;9.13;1.98;;;13.00;99.90;;;;;;6295427;22;20420;-67
2022/11/16 14:12:55;;;;;;;6.15;1.35;;;13.00;99.90;;;;;;6210565;22;20365;-63
2022/11/16 14:15:23;;;;;;;3.92;1.70;;;12.90;99.90;;;;;;6295575;22;20051;-61
2022/11/16 14:17:56;;;;;;;10.45;2.95;;;13.00;99.90;;;;;;6294707;22;20019;-61
2022/11/16 14:20:46;;;;;;;2.63;1.70;;;13.10;99.90;;;;;;6139818;22;20355;-63
2022/11/16 14:23:19;;;;;;;5.53;1.10;;;13.00;99.90;;;;;;6282681;22;20046;-63
2022/11/16 14:26:11;;;;;;;5.40;1.55;;;12.90;99.90;;;;;;6294571;22;20085;-63